sensor_id;sensor_type;location;lat;lon;timestamp;temperature;humidity
37446;DHT22;23307;51.136;14.942;2022-07-01T00:01:43;23.90;99.90
37446;DHT22;23307;51.136;14.942;2022-07-01T00:04:10;23.90;99.90
37446;DHT22;23307;51.136;14.942;2022-07-01T00:06:36;23.90;99.90
37446;DHT22;23307;51.136;14.942;2022-07-01T00:09:02;23.90;99.90
37446;DHT22;23307;51.136;14.942;2022-07-01T00:11:30;23.90;99.90
37446;DHT22;23307;51.136;14.942;2022-07-01T00:13:55;23.80;99.90
37446;DHT22;23307;51.136;14.942;2022-07-01T00:16:21;23.80;99.90
37446;DHT22;23307;51.136;14.942;2022-07-01T00:18:46;23.80;99.90
37446;DHT22;23307;51.136;14.942;2022-07-01T00:21:12;23.70;99.90
37446;DHT22;23307;51.136;14.942;2022-07-01T00:23:37;23.60;99.90
37446;DHT22;23307;51.136;14.942;2022-07-01T00:26:03;23.50;99.90
37446;DHT22;23307;51.136;14.942;2022-07-01T00:28:29;23.50;99.90
37446;DHT22;23307;51.136;14.942;2022-07-01T00:30:54;23.40;99.90
37446;DHT22;23307;51.136;14.942;2022-07-01T00:33:20;23.30;99.90
37446;DHT22;23307;51.136;14.942;2022-07-01T00:35:45;23.30;99.90
37446;DHT22;23307;51.136;14.942;2022-07-01T00:38:11;23.30;99.90
37446;DHT22;23307;51.136;14.942;2022-07-01T00:40:36;23.30;99.90
37446;DHT22;23307;51.136;14.942;2022-07-01T00:43:02;23.40;99.90
37446;DHT22;23307;51.136;14.942;2022-07-01T00:45:28;23.40;99.90
37446;DHT22;23307;51.136;14.942;2022-07-01T00:47:53;23.40;99.90
37446;DHT22;23307;51.136;14.942;2022-07-01T00:50:19;23.40;99.90
37446;DHT22;23307;51.136;14.942;2022-07-01T00:52:45;23.40;99.90
37446;DHT22;23307;51.136;14.942;2022-07-01T00:55:13;23.40;99.90
37446;DHT22;23307;51.136;14.942;2022-07-01T00:57:41;23.30;99.90
37446;DHT22;23307;51.136;14.942;2022-07-01T01:00:13;23.20;99.90
37446;DHT22;23307;51.136;14.942;2022-07-01T01:02:40;23.10;99.90
37446;DHT22;23307;51.136;14.942;2022-07-01T01:05:07;23.10;99.90
37446;DHT22;23307;51.136;14.942;2022-07-01T01:07:34;23.10;99.90
37446;DHT22;23307;51.136;14.942;2022-07-01T01:10:00;23.10;99.90
37446;DHT22;23307;51.136;14.942;2022-07-01T01:12:27;23.10;99.90
37446;DHT22;23307;51.136;14.942;2022-07-01T01:14:53;23.00;99.90
37446;DHT22;23307;51.136;14.942;2022-07-01T01:17:19;23.10;99.90
37446;DHT22;23307;51.136;14.942;2022-07-01T01:19:48;23.10;99.90
37446;DHT22;23307;51.136;14.942;2022-07-01T01:22:15;23.00;99.90
37446;DHT22;23307;51.136;14.942;2022-07-01T01:24:41;23.00;99.90
37446;DHT22;23307;51.136;14.942;2022-07-01T01:27:08;23.00;99.90
37446;DHT22;23307;51.136;14.942;2022-07-01T01:29:35;22.90;99.90
37446;DHT22;23307;51.136;14.942;2022-07-01T01:32:02;22.90;99.90
37446;DHT22;23307;51.136;14.942;2022-07-01T01:34:27;22.90;99.90
37446;DHT22;23307;51.136;14.942;2022-07-01T01:36:53;22.90;99.90
37446;DHT22;23307;51.136;14.942;2022-07-01T01:39:19;22.90;99.90
37446;DHT22;23307;51.136;14.942;2022-07-01T01:41:45;22.80;99.90
37446;DHT22;23307;51.136;14.942;2022-07-01T01:44:11;22.80;99.90
37446;DHT22;23307;51.136;14.942;2022-07-01T01:46:37;22.80;99.90
37446;DHT22;23307;51.136;14.942;2022-07-01T01:49:04;22.70;99.90
37446;DHT22;23307;51.136;14.942;2022-07-01T01:51:30;22.80;99.90
37446;DHT22;23307;51.136;14.942;2022-07-01T01:53:55;22.70;99.90
37446;DHT22;23307;51.136;14.942;2022-07-01T01:56:21;22.70;99.90
37446;DHT22;23307;51.136;14.942;2022-07-01T01:58:47;22.70;99.90
37446;DHT22;23307;51.136;14.942;2022-07-01T02:01:13;22.70;99.90
37446;DHT22;23307;51.136;14.942;2022-07-01T02:03:39;22.60;99.90
37446;DHT22;23307;51.136;14.942;2022-07-01T02:06:07;22.60;99.90
37446;DHT22;23307;51.136;14.942;2022-07-01T02:08:33;22.60;99.90
37446;DHT22;23307;51.136;14.942;2022-07-01T02:10:59;22.60;99.90
37446;DHT22;23307;51.136;14.942;2022-07-01T02:13:24;22.50;99.90
37446;DHT22;23307;51.136;14.942;2022-07-01T02:15:50;22.50;99.90
37446;DHT22;23307;51.136;14.942;2022-07-01T02:18:16;22.50;99.90
37446;DHT22;23307;51.136;14.942;2022-07-01T02:20:42;22.50;99.90
37446;DHT22;23307;51.136;14.942;2022-07-01T02:23:08;22.50;99.90
37446;DHT22;23307;51.136;14.942;2022-07-01T02:25:35;22.40;99.90
37446;DHT22;23307;51.136;14.942;2022-07-01T02:28:01;22.30;99.90
37446;DHT22;23307;51.136;14.942;2022-07-01T02:30:27;22.30;99.90
37446;DHT22;23307;51.136;14.942;2022-07-01T02:32:53;22.30;99.90
37446;DHT22;23307;51.136;14.942;2022-07-01T02:35:19;22.30;99.90
37446;DHT22;23307;51.136;14.942;2022-07-01T02:37:44;22.30;99.90
37446;DHT22;23307;51.136;14.942;2022-07-01T02:40:10;22.40;99.90
37446;DHT22;23307;51.136;14.942;2022-07-01T02:42:37;22.40;99.90
37446;DHT22;23307;51.136;14.942;2022-07-01T02:45:04;22.40;99.90
37446;DHT22;23307;51.136;14.942;2022-07-01T02:47:34;22.30;99.90
37446;DHT22;23307;51.136;14.942;2022-07-01T02:50:00;22.30;99.90
37446;DHT22;23307;51.136;14.942;2022-07-01T02:52:26;22.30;99.90
37446;DHT22;23307;51.136;14.942;2022-07-01T02:54:52;22.30;99.90
37446;DHT22;23307;51.136;14.942;2022-07-01T02:57:18;22.30;99.90
37446;DHT22;23307;51.136;14.942;2022-07-01T02:59:43;22.20;99.90
37446;DHT22;23307;51.136;14.942;2022-07-01T03:02:09;22.20;99.90
37446;DHT22;23307;51.136;14.942;2022-07-01T03:04:34;22.20;99.90
37446;DHT22;23307;51.136;14.942;2022-07-01T03:07:00;22.20;99.90
37446;DHT22;23307;51.136;14.942;2022-07-01T03:09:25;22.10;99.90
37446;DHT22;23307;51.136;14.942;2022-07-01T03:11:51;22.10;99.90
37446;DHT22;23307;51.136;14.942;2022-07-01T03:14:17;22.10;99.90
37446;DHT22;23307;51.136;14.942;2022-07-01T03:16:42;22.10;99.90
37446;DHT22;23307;51.136;14.942;2022-07-01T03:19:08;22.10;99.90
37446;DHT22;23307;51.136;14.942;2022-07-01T03:21:34;22.10;99.90
37446;DHT22;23307;51.136;14.942;2022-07-01T03:24:00;22.10;99.90
37446;DHT22;23307;51.136;14.942;2022-07-01T03:26:25;22.10;99.90
37446;DHT22;23307;51.136;14.942;2022-07-01T03:28:51;22.10;99.90
37446;DHT22;23307;51.136;14.942;2022-07-01T03:31:16;22.10;99.90
37446;DHT22;23307;51.136;14.942;2022-07-01T03:33:42;22.10;99.90
37446;DHT22;23307;51.136;14.942;2022-07-01T03:36:07;22.10;99.90
37446;DHT22;23307;51.136;14.942;2022-07-01T03:38:34;22.10;99.90
37446;DHT22;23307;51.136;14.942;2022-07-01T03:40:59;22.10;99.90
37446;DHT22;23307;51.136;14.942;2022-07-01T03:43:25;22.20;99.90
37446;DHT22;23307;51.136;14.942;2022-07-01T03:45:50;22.20;99.90
37446;DHT22;23307;51.136;14.942;2022-07-01T03:48:16;22.20;99.90
37446;DHT22;23307;51.136;14.942;2022-07-01T03:50:41;22.20;99.90
37446;DHT22;23307;51.136;14.942;2022-07-01T03:53:07;22.10;99.90
37446;DHT22;23307;51.136;14.942;2022-07-01T03:55:51;22.10;99.90
37446;DHT22;23307;51.136;14.942;2022-07-01T03:58:16;22.10;99.90
37446;DHT22;23307;51.136;14.942;2022-07-01T04:00:42;22.10;99.90
37446;DHT22;23307;51.136;14.942;2022-07-01T04:03:07;22.10;99.90
37446;DHT22;23307;51.136;14.942;2022-07-01T04:05:35;22.20;99.90
37446;DHT22;23307;51.136;14.942;2022-07-01T04:08:05;22.10;99.90
37446;DHT22;23307;51.136;14.942;2022-07-01T04:10:34;22.20;99.90
37446;DHT22;23307;51.136;14.942;2022-07-01T04:13:01;22.10;99.90
37446;DHT22;23307;51.136;14.942;2022-07-01T04:15:27;22.10;99.90
37446;DHT22;23307;51.136;14.942;2022-07-01T04:17:52;22.00;99.90
37446;DHT22;23307;51.136;14.942;2022-07-01T04:20:18;22.00;99.90
37446;DHT22;23307;51.136;14.942;2022-07-01T04:22:44;22.00;99.90
37446;DHT22;23307;51.136;14.942;2022-07-01T04:25:09;22.00;99.90
37446;DHT22;23307;51.136;14.942;2022-07-01T04:27:35;22.00;99.90
37446;DHT22;23307;51.136;14.942;2022-07-01T04:30:00;22.00;99.90
37446;DHT22;23307;51.136;14.942;2022-07-01T04:32:29;22.10;99.90
37446;DHT22;23307;51.136;14.942;2022-07-01T04:34:56;22.10;99.90
37446;DHT22;23307;51.136;14.942;2022-07-01T04:37:21;22.20;99.90
37446;DHT22;23307;51.136;14.942;2022-07-01T04:39:47;22.30;99.90
37446;DHT22;23307;51.136;14.942;2022-07-01T04:42:13;22.40;99.90
37446;DHT22;23307;51.136;14.942;2022-07-01T04:44:40;22.50;99.90
37446;DHT22;23307;51.136;14.942;2022-07-01T04:47:06;22.60;99.90
37446;DHT22;23307;51.136;14.942;2022-07-01T04:49:31;22.60;99.90
37446;DHT22;23307;51.136;14.942;2022-07-01T04:51:58;22.60;99.90
37446;DHT22;23307;51.136;14.942;2022-07-01T04:54:24;22.60;99.90
37446;DHT22;23307;51.136;14.942;2022-07-01T04:56:51;22.60;99.90
37446;DHT22;23307;51.136;14.942;2022-07-01T04:59:18;22.70;99.90
37446;DHT22;23307;51.136;14.942;2022-07-01T05:01:45;22.70;99.90
37446;DHT22;23307;51.136;14.942;2022-07-01T05:04:12;22.80;99.90
37446;DHT22;23307;51.136;14.942;2022-07-01T05:06:38;22.80;99.90
37446;DHT22;23307;51.136;14.942;2022-07-01T05:09:04;22.80;99.90
37446;DHT22;23307;51.136;14.942;2022-07-01T05:11:30;22.80;99.90
37446;DHT22;23307;51.136;14.942;2022-07-01T05:13:55;22.90;99.90
37446;DHT22;23307;51.136;14.942;2022-07-01T05:16:21;22.90;99.90
37446;DHT22;23307;51.136;14.942;2022-07-01T05:18:46;22.90;99.90
37446;DHT22;23307;51.136;14.942;2022-07-01T05:21:30;22.90;99.90
37446;DHT22;23307;51.136;14.942;2022-07-01T05:24:14;23.00;99.90
37446;DHT22;23307;51.136;14.942;2022-07-01T05:26:40;23.10;99.90
37446;DHT22;23307;51.136;14.942;2022-07-01T05:29:06;23.30;99.90
37446;DHT22;23307;51.136;14.942;2022-07-01T05:31:31;23.40;99.90
37446;DHT22;23307;51.136;14.942;2022-07-01T05:33:57;23.50;99.90
37446;DHT22;23307;51.136;14.942;2022-07-01T05:36:23;23.50;99.90
37446;DHT22;23307;51.136;14.942;2022-07-01T05:38:48;23.70;99.90
37446;DHT22;23307;51.136;14.942;2022-07-01T05:41:14;23.80;99.90
37446;DHT22;23307;51.136;14.942;2022-07-01T05:43:39;23.90;99.90
37446;DHT22;23307;51.136;14.942;2022-07-01T05:46:05;24.00;99.90
37446;DHT22;23307;51.136;14.942;2022-07-01T05:48:30;24.10;99.90
37446;DHT22;23307;51.136;14.942;2022-07-01T05:50:56;24.20;99.90
37446;DHT22;23307;51.136;14.942;2022-07-01T05:53:21;24.30;99.90
37446;DHT22;23307;51.136;14.942;2022-07-01T05:55:47;24.40;99.90
37446;DHT22;23307;51.136;14.942;2022-07-01T05:58:14;24.50;99.90
37446;DHT22;23307;51.136;14.942;2022-07-01T06:00:40;24.60;99.90
37446;DHT22;23307;51.136;14.942;2022-07-01T06:03:10;24.70;99.90
37446;DHT22;23307;51.136;14.942;2022-07-01T06:05:36;24.80;99.90
37446;DHT22;23307;51.136;14.942;2022-07-01T06:08:02;24.90;99.90
37446;DHT22;23307;51.136;14.942;2022-07-01T06:10:28;25.00;99.90
37446;DHT22;23307;51.136;14.942;2022-07-01T06:12:53;25.10;99.90
37446;DHT22;23307;51.136;14.942;2022-07-01T06:15:19;25.20;99.90
37446;DHT22;23307;51.136;14.942;2022-07-01T06:17:44;25.30;99.90
37446;DHT22;23307;51.136;14.942;2022-07-01T06:20:10;25.40;99.90
37446;DHT22;23307;51.136;14.942;2022-07-01T06:22:35;25.50;99.90
37446;DHT22;23307;51.136;14.942;2022-07-01T06:25:02;25.50;99.90
37446;DHT22;23307;51.136;14.942;2022-07-01T06:27:28;25.70;99.90
37446;DHT22;23307;51.136;14.942;2022-07-01T06:29:53;25.80;99.90
37446;DHT22;23307;51.136;14.942;2022-07-01T06:32:19;25.80;99.90
37446;DHT22;23307;51.136;14.942;2022-07-01T06:34:44;25.90;99.90
37446;DHT22;23307;51.136;14.942;2022-07-01T06:37:10;26.00;99.90
37446;DHT22;23307;51.136;14.942;2022-07-01T06:39:36;26.20;99.90
37446;DHT22;23307;51.136;14.942;2022-07-01T06:42:01;26.30;99.90
37446;DHT22;23307;51.136;14.942;2022-07-01T06:44:27;26.40;99.90
37446;DHT22;23307;51.136;14.942;2022-07-01T06:46:52;26.50;99.90
37446;DHT22;23307;51.136;14.942;2022-07-01T06:49:18;26.60;99.90
37446;DHT22;23307;51.136;14.942;2022-07-01T06:51:43;26.70;99.90
37446;DHT22;23307;51.136;14.942;2022-07-01T06:54:09;26.80;99.90
37446;DHT22;23307;51.136;14.942;2022-07-01T06:56:35;26.90;99.90
37446;DHT22;23307;51.136;14.942;2022-07-01T06:59:00;26.90;99.90
37446;DHT22;23307;51.136;14.942;2022-07-01T07:01:27;27.00;99.90
37446;DHT22;23307;51.136;14.942;2022-07-01T07:03:53;27.10;99.90
37446;DHT22;23307;51.136;14.942;2022-07-01T07:06:18;27.30;99.90
37446;DHT22;23307;51.136;14.942;2022-07-01T07:08:43;27.40;99.90
37446;DHT22;23307;51.136;14.942;2022-07-01T07:11:09;27.60;99.90
37446;DHT22;23307;51.136;14.942;2022-07-01T07:13:35;27.80;99.90
37446;DHT22;23307;51.136;14.942;2022-07-01T07:16:01;27.80;99.90
37446;DHT22;23307;51.136;14.942;2022-07-01T07:18:27;27.80;99.90
37446;DHT22;23307;51.136;14.942;2022-07-01T07:20:53;27.70;99.90
37446;DHT22;23307;51.136;14.942;2022-07-01T07:23:18;27.70;99.90
37446;DHT22;23307;51.136;14.942;2022-07-01T07:25:44;27.70;99.90
37446;DHT22;23307;51.136;14.942;2022-07-01T07:28:10;27.80;99.90
37446;DHT22;23307;51.136;14.942;2022-07-01T07:30:35;27.70;99.90
37446;DHT22;23307;51.136;14.942;2022-07-01T07:33:01;27.80;99.90
37446;DHT22;23307;51.136;14.942;2022-07-01T07:35:26;27.90;99.90
37446;DHT22;23307;51.136;14.942;2022-07-01T07:37:52;27.90;99.90
37446;DHT22;23307;51.136;14.942;2022-07-01T07:40:18;28.00;99.90
37446;DHT22;23307;51.136;14.942;2022-07-01T07:42:45;28.10;99.90
37446;DHT22;23307;51.136;14.942;2022-07-01T07:45:12;28.10;99.90
37446;DHT22;23307;51.136;14.942;2022-07-01T07:47:46;28.20;99.90
37446;DHT22;23307;51.136;14.942;2022-07-01T07:50:14;28.20;99.90
37446;DHT22;23307;51.136;14.942;2022-07-01T07:52:40;28.30;99.90
37446;DHT22;23307;51.136;14.942;2022-07-01T07:55:06;28.40;99.90
37446;DHT22;23307;51.136;14.942;2022-07-01T07:57:34;28.50;99.90
37446;DHT22;23307;51.136;14.942;2022-07-01T08:00:00;28.60;99.90
37446;DHT22;23307;51.136;14.942;2022-07-01T08:02:25;28.60;99.90
37446;DHT22;23307;51.136;14.942;2022-07-01T08:04:51;28.70;99.90
37446;DHT22;23307;51.136;14.942;2022-07-01T08:07:16;28.70;99.90
37446;DHT22;23307;51.136;14.942;2022-07-01T08:09:42;28.60;99.90
37446;DHT22;23307;51.136;14.942;2022-07-01T08:12:12;28.60;99.90
37446;DHT22;23307;51.136;14.942;2022-07-01T08:14:37;28.60;99.90
37446;DHT22;23307;51.136;14.942;2022-07-01T08:17:03;28.60;99.90
37446;DHT22;23307;51.136;14.942;2022-07-01T08:19:29;28.60;99.90
37446;DHT22;23307;51.136;14.942;2022-07-01T08:21:54;28.80;99.90
37446;DHT22;23307;51.136;14.942;2022-07-01T08:24:20;28.80;99.90
37446;DHT22;23307;51.136;14.942;2022-07-01T08:26:45;28.80;99.90
37446;DHT22;23307;51.136;14.942;2022-07-01T08:29:10;28.80;99.90
37446;DHT22;23307;51.136;14.942;2022-07-01T08:31:36;28.70;99.90
37446;DHT22;23307;51.136;14.942;2022-07-01T08:34:01;28.90;99.90
37446;DHT22;23307;51.136;14.942;2022-07-01T08:36:27;29.00;99.90
37446;DHT22;23307;51.136;14.942;2022-07-01T08:38:53;29.00;99.90
37446;DHT22;23307;51.136;14.942;2022-07-01T08:41:18;29.00;99.90
37446;DHT22;23307;51.136;14.942;2022-07-01T08:43:45;29.10;99.90
37446;DHT22;23307;51.136;14.942;2022-07-01T08:46:11;29.20;99.90
37446;DHT22;23307;51.136;14.942;2022-07-01T08:48:37;29.30;99.90
37446;DHT22;23307;51.136;14.942;2022-07-01T08:51:06;29.50;99.90
37446;DHT22;23307;51.136;14.942;2022-07-01T08:53:32;29.50;99.90
37446;DHT22;23307;51.136;14.942;2022-07-01T08:55:58;29.50;99.90
37446;DHT22;23307;51.136;14.942;2022-07-01T08:58:42;29.20;99.90
37446;DHT22;23307;51.136;14.942;2022-07-01T09:01:24;29.10;99.90
37446;DHT22;23307;51.136;14.942;2022-07-01T09:03:52;28.90;99.90
37446;DHT22;23307;51.136;14.942;2022-07-01T09:06:20;28.90;99.90
37446;DHT22;23307;51.136;14.942;2022-07-01T09:08:47;28.80;99.90
37446;DHT22;23307;51.136;14.942;2022-07-01T09:11:16;28.90;99.90
37446;DHT22;23307;51.136;14.942;2022-07-01T09:13:43;29.00;99.90
37446;DHT22;23307;51.136;14.942;2022-07-01T09:16:14;29.10;99.90
37446;DHT22;23307;51.136;14.942;2022-07-01T09:18:40;29.20;99.90
37446;DHT22;23307;51.136;14.942;2022-07-01T09:21:13;29.40;99.90
37446;DHT22;23307;51.136;14.942;2022-07-01T09:23:41;29.50;99.90
37446;DHT22;23307;51.136;14.942;2022-07-01T09:26:18;29.30;99.90
37446;DHT22;23307;51.136;14.942;2022-07-01T09:28:55;29.00;99.90
37446;DHT22;23307;51.136;14.942;2022-07-01T09:31:21;28.60;99.90
37446;DHT22;23307;51.136;14.942;2022-07-01T09:34:02;28.60;99.90
37446;DHT22;23307;51.136;14.942;2022-07-01T09:36:28;28.40;99.90
37446;DHT22;23307;51.136;14.942;2022-07-01T09:38:53;28.20;99.90
37446;DHT22;23307;51.136;14.942;2022-07-01T09:41:23;28.40;99.90
37446;DHT22;23307;51.136;14.942;2022-07-01T09:43:48;28.40;99.90
37446;DHT22;23307;51.136;14.942;2022-07-01T09:46:14;28.20;99.90
37446;DHT22;23307;51.136;14.942;2022-07-01T09:51:06;28.20;99.90
37446;DHT22;23307;51.136;14.942;2022-07-01T09:53:32;28.30;99.90
37446;DHT22;23307;51.136;14.942;2022-07-01T09:55:58;28.00;99.90
37446;DHT22;23307;51.136;14.942;2022-07-01T09:58:23;27.80;99.90
37446;DHT22;23307;51.136;14.942;2022-07-01T10:00:52;27.80;99.90
37446;DHT22;23307;51.136;14.942;2022-07-01T10:03:19;27.90;99.90
37446;DHT22;23307;51.136;14.942;2022-07-01T10:05:49;28.00;99.90
37446;DHT22;23307;51.136;14.942;2022-07-01T10:08:50;28.00;99.90
37446;DHT22;23307;51.136;14.942;2022-07-01T10:13:46;27.70;99.90
37446;DHT22;23307;51.136;14.942;2022-07-01T10:16:12;27.30;99.90
37446;DHT22;23307;51.136;14.942;2022-07-01T10:18:39;27.00;99.90
37446;DHT22;23307;51.136;14.942;2022-07-01T10:21:04;26.70;99.90
37446;DHT22;23307;51.136;14.942;2022-07-01T10:23:38;26.60;99.90
37446;DHT22;23307;51.136;14.942;2022-07-01T10:26:05;26.70;99.90
37446;DHT22;23307;51.136;14.942;2022-07-01T10:31:08;26.90;99.90
37446;DHT22;23307;51.136;14.942;2022-07-01T10:36:18;26.90;99.90
37446;DHT22;23307;51.136;14.942;2022-07-01T10:44:20;26.90;99.90
37446;DHT22;23307;51.136;14.942;2022-07-01T10:46:47;26.90;99.90
37446;DHT22;23307;51.136;14.942;2022-07-01T10:49:18;26.90;99.90
37446;DHT22;23307;51.136;14.942;2022-07-01T10:59:49;26.80;99.90
37446;DHT22;23307;51.136;14.942;2022-07-01T11:02:20;26.60;99.90
37446;DHT22;23307;51.136;14.942;2022-07-01T11:04:47;26.60;99.90
37446;DHT22;23307;51.136;14.942;2022-07-01T11:07:13;26.20;99.90
37446;DHT22;23307;51.136;14.942;2022-07-01T11:09:38;26.10;99.90
37446;DHT22;23307;51.136;14.942;2022-07-01T11:12:05;26.20;99.90
37446;DHT22;23307;51.136;14.942;2022-07-01T11:14:40;26.10;99.90
37446;DHT22;23307;51.136;14.942;2022-07-01T11:17:07;25.70;99.90
37446;DHT22;23307;51.136;14.942;2022-07-01T11:19:33;25.20;99.90
37446;DHT22;23307;51.136;14.942;2022-07-01T11:21:59;24.90;99.90
37446;DHT22;23307;51.136;14.942;2022-07-01T11:24:25;24.70;99.90
37446;DHT22;23307;51.136;14.942;2022-07-01T11:26:55;24.60;99.90
37446;DHT22;23307;51.136;14.942;2022-07-01T11:29:28;24.70;99.90
37446;DHT22;23307;51.136;14.942;2022-07-01T11:31:54;24.70;99.90
37446;DHT22;23307;51.136;14.942;2022-07-01T11:34:20;24.50;99.90
37446;DHT22;23307;51.136;14.942;2022-07-01T11:36:47;24.40;99.90
37446;DHT22;23307;51.136;14.942;2022-07-01T11:39:32;24.60;99.90
37446;DHT22;23307;51.136;14.942;2022-07-01T11:42:01;24.80;99.90
37446;DHT22;23307;51.136;14.942;2022-07-01T11:44:30;25.20;99.90
37446;DHT22;23307;51.136;14.942;2022-07-01T11:46:56;25.40;99.90
37446;DHT22;23307;51.136;14.942;2022-07-01T11:49:21;25.30;99.90
37446;DHT22;23307;51.136;14.942;2022-07-01T11:52:00;25.20;99.90
37446;DHT22;23307;51.136;14.942;2022-07-01T11:54:27;25.40;99.90
37446;DHT22;23307;51.136;14.942;2022-07-01T11:56:52;25.50;99.90
37446;DHT22;23307;51.136;14.942;2022-07-01T11:59:19;25.50;99.90
37446;DHT22;23307;51.136;14.942;2022-07-01T12:01:52;25.40;99.90
37446;DHT22;23307;51.136;14.942;2022-07-01T12:04:18;25.20;99.90
37446;DHT22;23307;51.136;14.942;2022-07-01T12:06:44;25.00;99.90
37446;DHT22;23307;51.136;14.942;2022-07-01T12:09:17;24.80;99.90
37446;DHT22;23307;51.136;14.942;2022-07-01T12:11:45;24.70;99.90
37446;DHT22;23307;51.136;14.942;2022-07-01T12:14:11;24.50;99.90
37446;DHT22;23307;51.136;14.942;2022-07-01T12:16:38;24.50;99.90
37446;DHT22;23307;51.136;14.942;2022-07-01T12:19:05;24.40;99.90
37446;DHT22;23307;51.136;14.942;2022-07-01T12:21:30;24.30;99.90
37446;DHT22;23307;51.136;14.942;2022-07-01T12:24:13;24.10;99.90
37446;DHT22;23307;51.136;14.942;2022-07-01T12:29:25;23.90;99.90
37446;DHT22;23307;51.136;14.942;2022-07-01T12:32:02;23.80;99.90
37446;DHT22;23307;51.136;14.942;2022-07-01T12:34:42;23.80;99.90
37446;DHT22;23307;51.136;14.942;2022-07-01T12:37:14;23.80;99.90
37446;DHT22;23307;51.136;14.942;2022-07-01T12:39:55;23.70;99.90
37446;DHT22;23307;51.136;14.942;2022-07-01T12:42:32;23.60;99.90
37446;DHT22;23307;51.136;14.942;2022-07-01T12:45:01;23.50;99.90
37446;DHT22;23307;51.136;14.942;2022-07-01T12:47:42;23.50;99.90
37446;DHT22;23307;51.136;14.942;2022-07-01T12:53:02;23.40;99.90
37446;DHT22;23307;51.136;14.942;2022-07-01T12:55:51;23.20;99.90
37446;DHT22;23307;51.136;14.942;2022-07-01T12:58:20;23.10;99.90
37446;DHT22;23307;51.136;14.942;2022-07-01T13:00:51;22.90;99.90
37446;DHT22;23307;51.136;14.942;2022-07-01T13:03:24;22.80;99.90
37446;DHT22;23307;51.136;14.942;2022-07-01T13:05:51;22.60;99.90
37446;DHT22;23307;51.136;14.942;2022-07-01T13:08:17;22.50;99.90
37446;DHT22;23307;51.136;14.942;2022-07-01T13:10:43;22.20;99.90
37446;DHT22;23307;51.136;14.942;2022-07-01T13:13:10;22.10;99.90
37446;DHT22;23307;51.136;14.942;2022-07-01T13:15:35;21.90;99.90
37446;DHT22;23307;51.136;14.942;2022-07-01T13:18:02;21.90;99.90
37446;DHT22;23307;51.136;14.942;2022-07-01T13:20:28;21.80;99.90
37446;DHT22;23307;51.136;14.942;2022-07-01T13:22:53;21.80;99.90
37446;DHT22;23307;51.136;14.942;2022-07-01T13:25:19;21.80;99.90
37446;DHT22;23307;51.136;14.942;2022-07-01T13:27:45;21.80;99.90
37446;DHT22;23307;51.136;14.942;2022-07-01T13:30:12;21.70;99.90
37446;DHT22;23307;51.136;14.942;2022-07-01T13:32:37;21.70;99.90
37446;DHT22;23307;51.136;14.942;2022-07-01T13:35:05;21.50;99.90
37446;DHT22;23307;51.136;14.942;2022-07-01T13:37:30;21.30;99.90
37446;DHT22;23307;51.136;14.942;2022-07-01T13:39:56;21.20;99.90
37446;DHT22;23307;51.136;14.942;2022-07-01T13:42:21;21.10;99.90
37446;DHT22;23307;51.136;14.942;2022-07-01T13:44:47;21.00;99.90
37446;DHT22;23307;51.136;14.942;2022-07-01T13:47:12;21.10;99.90
37446;DHT22;23307;51.136;14.942;2022-07-01T13:49:40;21.10;99.90
37446;DHT22;23307;51.136;14.942;2022-07-01T13:52:08;21.00;99.90
37446;DHT22;23307;51.136;14.942;2022-07-01T13:54:33;20.90;99.90
37446;DHT22;23307;51.136;14.942;2022-07-01T13:56:59;20.90;99.90
37446;DHT22;23307;51.136;14.942;2022-07-01T13:59:24;20.80;99.90
37446;DHT22;23307;51.136;14.942;2022-07-01T14:01:50;20.80;99.90
37446;DHT22;23307;51.136;14.942;2022-07-01T14:04:15;20.80;99.90
37446;DHT22;23307;51.136;14.942;2022-07-01T14:06:41;20.70;99.90
37446;DHT22;23307;51.136;14.942;2022-07-01T14:09:06;20.70;99.90
37446;DHT22;23307;51.136;14.942;2022-07-01T14:11:32;20.70;99.90
37446;DHT22;23307;51.136;14.942;2022-07-01T14:13:57;20.60;99.90
37446;DHT22;23307;51.136;14.942;2022-07-01T14:16:23;20.60;99.90
37446;DHT22;23307;51.136;14.942;2022-07-01T14:18:48;20.50;99.90
37446;DHT22;23307;51.136;14.942;2022-07-01T14:21:17;20.40;99.90
37446;DHT22;23307;51.136;14.942;2022-07-01T14:23:43;20.30;99.90
37446;DHT22;23307;51.136;14.942;2022-07-01T14:26:09;20.20;99.90
37446;DHT22;23307;51.136;14.942;2022-07-01T14:28:34;20.10;99.90
37446;DHT22;23307;51.136;14.942;2022-07-01T14:31:00;20.00;99.90
37446;DHT22;23307;51.136;14.942;2022-07-01T14:33:26;20.00;99.90
37446;DHT22;23307;51.136;14.942;2022-07-01T14:35:51;19.90;99.90
37446;DHT22;23307;51.136;14.942;2022-07-01T14:38:17;19.90;99.90
37446;DHT22;23307;51.136;14.942;2022-07-01T14:40:43;19.90;99.90
37446;DHT22;23307;51.136;14.942;2022-07-01T14:43:09;19.80;99.90
37446;DHT22;23307;51.136;14.942;2022-07-01T14:45:34;19.80;99.90
37446;DHT22;23307;51.136;14.942;2022-07-01T14:48:00;19.70;99.90
37446;DHT22;23307;51.136;14.942;2022-07-01T14:50:26;19.80;99.90
37446;DHT22;23307;51.136;14.942;2022-07-01T14:52:51;19.80;99.90
37446;DHT22;23307;51.136;14.942;2022-07-01T14:55:17;19.70;99.90
37446;DHT22;23307;51.136;14.942;2022-07-01T14:57:42;19.60;99.90
37446;DHT22;23307;51.136;14.942;2022-07-01T15:00:09;19.60;99.90
37446;DHT22;23307;51.136;14.942;2022-07-01T15:02:34;19.50;99.90
37446;DHT22;23307;51.136;14.942;2022-07-01T15:05:00;19.60;99.90
37446;DHT22;23307;51.136;14.942;2022-07-01T15:07:25;19.50;99.90
37446;DHT22;23307;51.136;14.942;2022-07-01T15:09:51;19.50;99.90
37446;DHT22;23307;51.136;14.942;2022-07-01T15:12:17;19.50;99.90
37446;DHT22;23307;51.136;14.942;2022-07-01T15:14:46;19.50;99.90
37446;DHT22;23307;51.136;14.942;2022-07-01T15:17:12;19.50;99.90
37446;DHT22;23307;51.136;14.942;2022-07-01T15:19:37;19.50;99.90
37446;DHT22;23307;51.136;14.942;2022-07-01T15:22:04;19.50;99.90
37446;DHT22;23307;51.136;14.942;2022-07-01T15:24:30;19.40;99.90
37446;DHT22;23307;51.136;14.942;2022-07-01T15:26:55;19.40;99.90
37446;DHT22;23307;51.136;14.942;2022-07-01T15:29:21;19.30;99.90
37446;DHT22;23307;51.136;14.942;2022-07-01T15:31:46;19.20;99.90
37446;DHT22;23307;51.136;14.942;2022-07-01T15:34:12;19.10;99.90
37446;DHT22;23307;51.136;14.942;2022-07-01T15:36:38;19.00;99.90
37446;DHT22;23307;51.136;14.942;2022-07-01T15:39:04;18.90;99.90
37446;DHT22;23307;51.136;14.942;2022-07-01T15:41:32;18.80;99.90
37446;DHT22;23307;51.136;14.942;2022-07-01T15:43:58;18.70;99.90